createdAt,value
2022-11-28T00:00:52.744Z,2.90
2022-11-28T00:01:52.807Z,2.80
2022-11-28T00:02:52.801Z,2.70
2022-11-28T00:03:55.619Z,2.80
2022-11-28T00:04:53.622Z,2.70
2022-11-28T00:05:52.699Z,2.50
2022-11-28T00:06:52.689Z,2.60
2022-11-28T00:07:52.689Z,2.80
2022-11-28T00:08:52.649Z,3.10
2022-11-28T00:09:52.630Z,2.90
2022-11-28T00:10:52.623Z,2.60
2022-11-28T00:11:52.632Z,2.80
2022-11-28T00:12:52.601Z,2.70
2022-11-28T00:13:52.588Z,2.60
2022-11-28T00:14:52.585Z,2.70
2022-11-28T00:15:52.735Z,2.80
2022-11-28T00:16:52.561Z,2.70
2022-11-28T00:17:52.555Z,2.60
2022-11-28T00:18:55.142Z,2.60
2022-11-28T00:19:53.112Z,2.90
2022-11-28T00:20:52.531Z,2.50
2022-11-28T00:21:55.118Z,2.70
2022-11-28T00:22:59.124Z,2.20
2022-11-28T00:23:52.512Z,2.50
2022-11-28T00:24:52.473Z,2.50
2022-11-28T00:25:52.468Z,2.40
2022-11-28T00:26:53.111Z,2.40
2022-11-28T00:27:55.115Z,2.30
2022-11-28T00:28:52.645Z,2.60
2022-11-28T00:29:52.426Z,2.80
2022-11-28T00:30:53.116Z,2.80
2022-11-28T00:31:52.536Z,2.60
2022-11-28T00:32:53.117Z,2.60
2022-11-28T00:33:52.396Z,2.60
2022-11-28T00:34:53.113Z,2.60
2022-11-28T00:35:52.357Z,2.60
2022-11-28T00:36:55.114Z,2.70
2022-11-28T00:37:53.120Z,2.70
2022-11-28T00:38:52.640Z,2.60
2022-11-28T00:39:52.326Z,2.80
2022-11-28T00:40:52.319Z,2.90
2022-11-28T00:41:52.286Z,2.60
2022-11-28T00:42:52.271Z,3.00
2022-11-28T00:43:52.266Z,2.80
2022-11-28T00:44:52.248Z,2.70
2022-11-28T00:45:52.316Z,2.90
2022-11-28T00:46:52.638Z,2.90
2022-11-28T00:47:55.227Z,2.70
2022-11-28T00:48:52.213Z,3.10
2022-11-28T00:49:52.202Z,2.90
2022-11-28T00:50:52.212Z,3.00
2022-11-28T00:51:52.645Z,2.90
2022-11-28T00:52:52.168Z,2.70
2022-11-28T00:53:52.159Z,3.20
2022-11-28T00:54:52.165Z,3.00
2022-11-28T00:55:52.130Z,3.00
2022-11-28T00:56:55.121Z,3.00
2022-11-28T00:57:52.107Z,3.20
2022-11-28T00:58:52.094Z,3.10
2022-11-28T00:59:52.085Z,2.90
2022-11-28T01:00:52.153Z,3.10
2022-11-28T01:01:52.120Z,3.40
2022-11-28T01:02:52.067Z,2.90
2022-11-28T01:03:52.144Z,3.50
2022-11-28T01:04:53.089Z,3.30
2022-11-28T01:05:52.020Z,3.50
2022-11-28T01:06:52.171Z,3.40
2022-11-28T01:07:52.057Z,3.50
2022-11-28T01:08:51.989Z,3.20
2022-11-28T01:09:52.610Z,3.20
2022-11-28T01:11:06.632Z,3.30
2022-11-28T01:11:51.954Z,3.10
2022-11-28T01:12:52.157Z,3.40
2022-11-28T01:13:51.930Z,3.20
2022-11-28T01:14:51.932Z,3.40
2022-11-28T01:15:51.931Z,3.10
2022-11-28T01:16:51.962Z,3.40
2022-11-28T01:17:51.910Z,3.30
2022-11-28T01:18:51.895Z,3.50
2022-11-28T01:19:51.979Z,3.50
2022-11-28T01:20:54.623Z,3.10
2022-11-28T01:21:51.847Z,3.20
2022-11-28T01:22:52.153Z,3.00
2022-11-28T01:23:54.615Z,3.10
2022-11-28T01:24:51.846Z,3.00
2022-11-28T01:25:51.804Z,3.30
2022-11-28T01:26:52.625Z,3.10
2022-11-28T01:27:51.806Z,3.10
2022-11-28T01:28:52.618Z,3.20
2022-11-28T01:29:51.785Z,3.30
2022-11-28T01:30:52.615Z,2.80
2022-11-28T01:31:51.774Z,3.00
2022-11-28T01:32:51.764Z,3.00
2022-11-28T01:33:54.664Z,3.20
2022-11-28T01:34:52.611Z,3.00
2022-11-28T01:35:58.758Z,3.10
2022-11-28T01:36:51.688Z,2.80
2022-11-28T01:37:51.682Z,2.80
2022-11-28T01:38:51.679Z,3.20
2022-11-28T01:39:51.663Z,3.00
2022-11-28T01:40:51.638Z,2.80
2022-11-28T01:41:51.630Z,2.80
2022-11-28T01:42:51.620Z,3.20
2022-11-28T01:43:51.648Z,3.30
2022-11-28T01:44:51.589Z,3.10
2022-11-28T01:45:51.607Z,2.90
2022-11-28T01:46:51.636Z,3.20
2022-11-28T01:47:51.570Z,3.20
2022-11-28T01:48:51.552Z,2.80
2022-11-28T01:49:51.658Z,3.10
2022-11-28T01:50:52.121Z,3.00
2022-11-28T01:51:51.762Z,2.80
2022-11-28T01:52:51.513Z,2.80
2022-11-28T01:53:51.489Z,2.90
2022-11-28T01:54:51.486Z,3.50
2022-11-28T01:55:54.114Z,3.10
2022-11-28T01:56:51.672Z,3.00
2022-11-28T01:57:54.115Z,2.90
2022-11-28T01:58:51.471Z,3.10
2022-11-28T01:59:51.436Z,3.00
2022-11-28T02:00:51.571Z,2.80
2022-11-28T02:01:51.477Z,2.90
2022-11-28T02:02:51.403Z,2.90
2022-11-28T02:03:51.388Z,3.00
2022-11-28T02:04:51.409Z,2.90
2022-11-28T02:05:51.374Z,2.70
2022-11-28T02:06:51.361Z,3.00
2022-11-28T02:07:51.516Z,3.30
2022-11-28T02:08:51.340Z,2.90
2022-11-28T02:09:51.320Z,2.50
2022-11-28T02:10:52.123Z,3.00
2022-11-28T02:11:54.118Z,2.90
2022-11-28T02:12:51.326Z,2.90
2022-11-28T02:13:52.115Z,2.60
2022-11-28T02:14:51.647Z,2.80
2022-11-28T02:15:51.349Z,3.10
2022-11-28T02:16:51.240Z,3.10
2022-11-28T02:17:52.121Z,3.30
2022-11-28T02:18:51.220Z,3.30
2022-11-28T02:19:51.235Z,3.10
2022-11-28T02:20:52.117Z,2.80
2022-11-28T02:21:51.191Z,3.10
2022-11-28T02:22:51.219Z,3.10
2022-11-28T02:23:58.232Z,3.10
2022-11-28T02:24:51.160Z,3.30
2022-11-28T02:25:51.177Z,2.90
2022-11-28T02:26:51.137Z,3.10
2022-11-28T02:27:51.104Z,3.30
2022-11-28T02:28:51.115Z,3.10
2022-11-28T02:29:51.113Z,3.30
2022-11-28T02:30:51.111Z,3.10
2022-11-28T02:31:51.119Z,3.30
2022-11-28T02:32:51.081Z,3.00
2022-11-28T02:33:51.614Z,3.10
2022-11-28T02:34:51.255Z,3.20
2022-11-28T02:35:51.042Z,3.10
2022-11-28T02:36:51.054Z,3.30
2022-11-28T02:37:51.018Z,3.30
2022-11-28T02:38:51.002Z,3.20
2022-11-28T02:39:51.104Z,3.10
2022-11-28T02:40:50.985Z,3.40
2022-11-28T02:41:50.995Z,3.30
2022-11-28T02:42:50.969Z,3.10
2022-11-28T02:43:50.954Z,3.50
2022-11-28T02:44:51.618Z,3.20
2022-11-28T02:45:57.623Z,3.20
2022-11-28T02:46:50.986Z,3.40
2022-11-28T02:47:50.909Z,3.50
2022-11-28T02:48:50.915Z,3.20
2022-11-28T02:49:50.890Z,3.30
2022-11-28T02:50:50.870Z,3.10
2022-11-28T02:51:50.891Z,3.40
2022-11-28T02:53:05.623Z,3.40
2022-11-28T02:53:50.840Z,3.70
2022-11-28T02:54:50.822Z,3.80
2022-11-28T02:55:50.958Z,3.60
2022-11-28T02:56:50.831Z,3.40
2022-11-28T02:57:51.614Z,3.50
2022-11-28T02:58:51.625Z,3.30
2022-11-28T02:59:51.623Z,3.80
2022-11-28T03:00:50.860Z,3.70
2022-11-28T03:01:50.805Z,3.70
2022-11-28T03:02:56.144Z,3.70
2022-11-28T03:03:50.735Z,3.70
2022-11-28T03:04:51.614Z,3.70
2022-11-28T03:05:53.618Z,4.00
2022-11-28T03:06:50.702Z,3.90
2022-11-28T03:07:50.784Z,3.80
2022-11-28T03:08:50.697Z,4.10
2022-11-28T03:09:50.665Z,4.10
2022-11-28T03:10:50.655Z,3.80
2022-11-28T03:11:50.761Z,3.70
2022-11-28T03:12:50.631Z,3.80
2022-11-28T03:13:50.644Z,4.00
2022-11-28T03:14:50.605Z,3.90
2022-11-28T03:15:50.626Z,3.50
2022-11-28T03:16:50.602Z,4.00
2022-11-28T03:17:50.579Z,3.70
2022-11-28T03:18:50.678Z,4.00
2022-11-28T03:19:50.641Z,4.10
2022-11-28T03:21:05.122Z,3.90
2022-11-28T03:21:51.113Z,3.90
2022-11-28T03:22:51.556Z,4.00
2022-11-28T03:23:50.516Z,4.10
2022-11-28T03:24:50.526Z,3.90
2022-11-28T03:25:50.490Z,4.00
2022-11-28T03:26:50.504Z,4.00
2022-11-28T03:27:51.240Z,4.20
2022-11-28T03:28:50.515Z,3.90
2022-11-28T03:29:50.445Z,3.70
2022-11-28T03:30:50.454Z,3.90
2022-11-28T03:31:50.474Z,4.00
2022-11-28T03:32:50.415Z,4.10
2022-11-28T03:33:50.407Z,4.10
2022-11-28T03:34:50.394Z,3.90
2022-11-28T03:35:53.118Z,4.10
2022-11-28T03:36:50.392Z,4.00
2022-11-28T03:37:50.355Z,3.90
2022-11-28T03:38:50.372Z,3.70
2022-11-28T03:39:50.337Z,3.80
2022-11-28T03:40:50.648Z,3.80
2022-11-28T03:41:50.320Z,3.70
2022-11-28T03:42:53.124Z,3.60
2022-11-28T03:43:50.412Z,3.90
2022-11-28T03:44:50.306Z,4.20
2022-11-28T03:45:51.125Z,4.30
2022-11-28T03:46:51.188Z,3.70
2022-11-28T03:47:50.654Z,3.70
2022-11-28T03:48:51.120Z,3.70
2022-11-28T03:49:50.233Z,4.00
2022-11-28T03:50:53.121Z,3.90
2022-11-28T03:51:50.220Z,3.70
2022-11-28T03:52:50.184Z,3.30
2022-11-28T03:53:55.654Z,3.50
2022-11-28T03:54:53.109Z,3.30
2022-11-28T03:55:51.162Z,3.80
2022-11-28T03:56:50.143Z,3.70
2022-11-28T03:57:50.158Z,3.40
2022-11-28T03:58:50.127Z,3.80
2022-11-28T03:59:52.743Z,3.60
2022-11-28T04:00:50.139Z,3.40
2022-11-28T04:01:50.113Z,3.40
2022-11-28T04:02:50.716Z,3.40
2022-11-28T04:03:50.096Z,3.90
2022-11-28T04:04:50.064Z,3.90
2022-11-28T04:05:50.049Z,3.70
2022-11-28T04:06:50.618Z,3.60
2022-11-28T04:07:50.144Z,3.20
2022-11-28T04:08:50.612Z,3.80
2022-11-28T04:09:51.656Z,3.50
2022-11-28T04:10:52.616Z,3.40
2022-11-28T04:11:50.007Z,3.30
2022-11-28T04:12:49.971Z,3.50
2022-11-28T04:13:50.018Z,3.50
2022-11-28T04:14:49.946Z,3.60
2022-11-28T04:15:50.060Z,3.90
2022-11-28T04:16:53.799Z,3.90
2022-11-28T04:17:49.927Z,3.70
2022-11-28T04:18:49.925Z,3.90
2022-11-28T04:19:50.620Z,3.70
2022-11-28T04:20:49.880Z,4.00
2022-11-28T04:21:50.620Z,4.00
2022-11-28T04:22:52.628Z,4.10
2022-11-28T04:23:49.852Z,4.20
2022-11-28T04:24:49.865Z,3.80
2022-11-28T04:25:50.152Z,4.40
2022-11-28T04:26:49.821Z,4.50
2022-11-28T04:27:49.812Z,4.20
2022-11-28T04:28:49.816Z,4.30
2022-11-28T04:29:49.788Z,4.40
2022-11-28T04:30:49.803Z,4.40
2022-11-28T04:31:49.982Z,4.70
2022-11-28T04:32:49.766Z,4.40
2022-11-28T04:33:49.741Z,4.70
2022-11-28T04:34:50.619Z,4.70
2022-11-28T04:35:49.741Z,4.80
2022-11-28T04:36:49.713Z,4.60
2022-11-28T04:37:52.620Z,4.30
2022-11-28T04:38:49.697Z,4.70
2022-11-28T04:39:52.619Z,4.30
2022-11-28T04:40:49.688Z,4.80
2022-11-28T04:41:49.663Z,4.60
2022-11-28T04:42:52.803Z,4.40
2022-11-28T04:43:49.636Z,4.30
2022-11-28T04:44:49.628Z,4.60
2022-11-28T04:45:49.714Z,4.80
2022-11-28T04:46:56.230Z,5.00
2022-11-28T04:47:50.123Z,4.50
2022-11-28T04:48:49.582Z,4.90
2022-11-28T04:49:52.132Z,4.60
2022-11-28T04:50:49.552Z,4.70
2022-11-28T04:51:49.659Z,4.80
2022-11-28T04:52:50.120Z,4.20
2022-11-28T04:53:49.547Z,4.80
2022-11-28T04:54:49.645Z,4.90
2022-11-28T04:55:49.503Z,4.90
2022-11-28T04:56:50.123Z,4.60
2022-11-28T04:57:52.951Z,4.80
2022-11-28T04:58:53.128Z,4.80
2022-11-28T04:59:49.463Z,5.20
2022-11-28T05:00:49.493Z,5.20
2022-11-28T05:01:49.490Z,5.00
2022-11-28T05:02:49.544Z,5.10
2022-11-28T05:03:49.428Z,5.50
2022-11-28T05:04:49.399Z,4.70
2022-11-28T05:05:49.407Z,5.30
2022-11-28T05:06:49.430Z,5.30
2022-11-28T05:07:49.446Z,5.10
2022-11-28T05:08:49.365Z,5.50
2022-11-28T05:09:49.351Z,5.50
2022-11-28T05:10:50.125Z,5.00
2022-11-28T05:11:50.119Z,5.10
2022-11-28T05:12:52.616Z,5.90
2022-11-28T05:13:50.117Z,5.30
2022-11-28T05:14:49.305Z,5.20
2022-11-28T05:15:49.292Z,5.90
2022-11-28T05:16:50.212Z,5.30
2022-11-28T05:17:50.141Z,5.30
2022-11-28T05:18:50.280Z,4.90
2022-11-28T05:19:49.254Z,5.30
2022-11-28T05:20:50.114Z,5.20
2022-11-28T05:21:49.253Z,5.10
2022-11-28T05:22:50.117Z,5.10
2022-11-28T05:23:49.219Z,5.40
2022-11-28T05:24:51.144Z,5.20
2022-11-28T05:25:52.122Z,5.00
2022-11-28T05:26:49.161Z,5.50
2022-11-28T05:27:49.183Z,5.50
2022-11-28T05:28:49.146Z,5.90
2022-11-28T05:29:52.240Z,5.40
2022-11-28T05:30:49.138Z,5.80
2022-11-28T05:31:49.215Z,5.40
2022-11-28T05:32:49.101Z,5.70
2022-11-28T05:33:55.747Z,5.60
2022-11-28T05:34:49.145Z,5.80
2022-11-28T05:35:49.078Z,5.50
2022-11-28T05:36:49.149Z,5.80
2022-11-28T05:37:49.054Z,5.80
2022-11-28T05:38:49.035Z,5.10
2022-11-28T05:39:49.027Z,5.80
2022-11-28T05:40:49.022Z,5.30
2022-11-28T05:41:49.006Z,5.60
2022-11-28T05:42:49.034Z,5.60
2022-11-28T05:43:48.987Z,5.80
2022-11-28T05:44:48.966Z,5.90
2022-11-28T05:45:49.001Z,5.60
2022-11-28T05:46:48.950Z,5.60
2022-11-28T05:47:48.944Z,5.70
2022-11-28T05:48:48.925Z,5.60
2022-11-28T05:49:49.044Z,6.00
2022-11-28T05:50:48.902Z,6.10
2022-11-28T05:51:48.901Z,6.30
2022-11-28T05:52:48.883Z,6.30
2022-11-28T05:53:48.877Z,6.40
2022-11-28T05:54:48.867Z,6.30
2022-11-28T05:55:48.868Z,6.30
2022-11-28T05:56:48.841Z,6.00
2022-11-28T05:57:48.836Z,6.00
2022-11-28T05:58:48.825Z,6.50
2022-11-28T05:59:50.199Z,6.10
2022-11-28T06:00:49.616Z,6.20
2022-11-28T06:01:49.715Z,6.00
2022-11-28T06:02:48.769Z,6.40
2022-11-28T06:03:49.151Z,6.30
2022-11-28T06:04:48.816Z,6.60
2022-11-28T06:05:49.318Z,6.50
2022-11-28T06:06:49.631Z,7.10
2022-11-28T06:07:48.759Z,6.40
2022-11-28T06:08:48.712Z,6.30
2022-11-28T06:09:48.719Z,6.40
2022-11-28T06:10:48.703Z,6.20
2022-11-28T06:11:48.686Z,6.70
2022-11-28T06:12:48.665Z,6.50
2022-11-28T06:13:51.647Z,6.10
2022-11-28T06:14:48.643Z,6.60
2022-11-28T06:15:48.657Z,6.10
2022-11-28T06:16:48.695Z,6.90
2022-11-28T06:17:48.616Z,6.40
2022-11-28T06:18:48.606Z,6.70
2022-11-28T06:19:48.594Z,6.70
2022-11-28T06:20:48.584Z,6.20
2022-11-28T06:21:48.754Z,6.10
2022-11-28T06:22:48.577Z,6.20
2022-11-28T06:23:48.580Z,6.80
2022-11-28T06:24:48.546Z,6.60
2022-11-28T06:25:48.533Z,6.70
2022-11-28T06:26:48.513Z,6.20
2022-11-28T06:27:48.523Z,6.40
2022-11-28T06:28:48.492Z,7.10
2022-11-28T06:29:48.478Z,6.20
2022-11-28T06:30:48.482Z,6.40
2022-11-28T06:31:48.548Z,6.00
2022-11-28T06:32:48.444Z,6.90
2022-11-28T06:33:51.134Z,6.50
2022-11-28T06:34:48.651Z,5.80
2022-11-28T06:35:48.419Z,6.50
2022-11-28T06:36:49.130Z,5.40
2022-11-28T06:37:48.500Z,5.70
2022-11-28T06:38:48.386Z,6.20
2022-11-28T06:39:49.132Z,5.70
2022-11-28T06:40:48.369Z,5.70
2022-11-28T06:41:48.350Z,6.00
2022-11-28T06:42:48.339Z,5.90
2022-11-28T06:43:48.328Z,5.70
2022-11-28T06:44:48.318Z,5.90
2022-11-28T06:45:49.179Z,5.70
2022-11-28T06:46:49.363Z,6.30
2022-11-28T06:47:48.286Z,6.40
2022-11-28T06:48:49.130Z,5.80
2022-11-28T06:49:49.127Z,6.20
2022-11-28T06:50:48.274Z,6.40
2022-11-28T06:51:48.243Z,6.10
2022-11-28T06:52:48.257Z,6.20
2022-11-28T06:53:48.339Z,6.60
2022-11-28T06:54:48.217Z,6.30
2022-11-28T06:55:49.126Z,6.70
2022-11-28T06:56:48.206Z,6.50
2022-11-28T06:57:48.176Z,6.70
2022-11-28T06:58:49.191Z,6.90
2022-11-28T06:59:49.122Z,6.80
2022-11-28T07:00:49.180Z,7.10
2022-11-28T07:01:48.222Z,6.70
2022-11-28T07:02:48.214Z,7.00
2022-11-28T07:03:50.627Z,7.30
2022-11-28T07:04:48.099Z,6.50
2022-11-28T07:05:49.155Z,7.10
2022-11-28T07:06:48.088Z,6.20
2022-11-28T07:07:54.061Z,6.80
2022-11-28T07:08:50.088Z,6.80
2022-11-28T07:09:48.265Z,7.00
2022-11-28T07:10:49.635Z,7.10
2022-11-28T07:11:48.157Z,6.70
2022-11-28T07:12:48.012Z,6.80
2022-11-28T07:13:48.039Z,7.40
2022-11-28T07:14:48.638Z,7.10
2022-11-28T07:15:47.981Z,7.30
2022-11-28T07:16:48.678Z,7.50
2022-11-28T07:17:47.979Z,7.00
2022-11-28T07:18:47.942Z,6.90
2022-11-28T07:19:53.503Z,7.00
2022-11-28T07:20:48.918Z,6.70
2022-11-28T07:21:47.936Z,7.90
2022-11-28T07:22:54.623Z,7.40
2022-11-28T07:23:47.975Z,7.00
2022-11-28T07:24:50.747Z,7.80
2022-11-28T07:25:47.866Z,7.10
2022-11-28T07:26:47.856Z,7.50
2022-11-28T07:27:48.630Z,7.30
2022-11-28T07:28:47.859Z,6.90
2022-11-28T07:29:47.837Z,6.60
2022-11-28T07:30:47.818Z,7.00
2022-11-28T07:31:47.814Z,7.00
2022-11-28T07:32:47.799Z,6.40
2022-11-28T07:33:47.792Z,6.70
2022-11-28T07:34:50.205Z,7.20
2022-11-28T07:35:48.633Z,7.50
2022-11-28T07:36:47.755Z,7.30
2022-11-28T07:37:48.623Z,7.50
2022-11-28T07:38:47.732Z,7.60
2022-11-28T07:39:47.716Z,7.80
2022-11-28T07:40:47.847Z,7.20
2022-11-28T07:41:50.636Z,7.40
2022-11-28T07:42:47.689Z,6.90
2022-11-28T07:43:47.678Z,7.30
2022-11-28T07:44:48.148Z,7.20
2022-11-28T07:46:00.697Z,7.30
2022-11-28T07:46:48.690Z,7.50
2022-11-28T07:47:47.631Z,6.80
2022-11-28T07:48:47.623Z,7.90
2022-11-28T07:49:47.612Z,8.10
2022-11-28T07:50:47.601Z,7.30
2022-11-28T07:51:47.670Z,8.00
2022-11-28T07:52:47.601Z,7.60
2022-11-28T07:53:48.577Z,7.80
2022-11-28T07:54:48.127Z,8.40
2022-11-28T07:55:47.653Z,8.00
2022-11-28T07:57:48.542Z,7.80
2022-11-28T07:58:48.131Z,7.10
2022-11-28T07:59:48.136Z,7.40
2022-11-28T08:00:50.125Z,7.90
2022-11-28T08:01:47.558Z,8.00
2022-11-28T08:02:54.140Z,7.80
2022-11-28T08:03:47.466Z,7.60
2022-11-28T08:04:50.577Z,8.10
2022-11-28T08:05:48.458Z,7.40
2022-11-28T08:06:47.441Z,7.30
2022-11-28T08:07:47.467Z,7.20
2022-11-28T08:08:47.404Z,7.30
2022-11-28T08:09:47.406Z,7.20
2022-11-28T08:10:47.373Z,7.00
2022-11-28T08:11:47.399Z,7.60
2022-11-28T08:12:47.391Z,6.80
2022-11-28T08:13:47.331Z,6.80
2022-11-28T08:14:48.125Z,7.10
2022-11-28T08:15:47.360Z,6.70
2022-11-28T08:16:48.199Z,7.00
2022-11-28T08:17:49.758Z,7.00
2022-11-28T08:18:47.311Z,6.80
2022-11-28T08:19:48.173Z,6.50
2022-11-28T08:20:47.268Z,6.90
2022-11-28T08:21:47.263Z,6.90
2022-11-28T08:22:48.152Z,6.50
2022-11-28T08:23:50.129Z,7.30
2022-11-28T08:24:47.233Z,6.70
2022-11-28T08:25:48.261Z,6.90
2022-11-28T08:26:47.223Z,6.60
2022-11-28T08:27:47.204Z,6.80
2022-11-28T08:28:47.674Z,6.30
2022-11-28T08:29:51.980Z,6.90
2022-11-28T08:30:49.207Z,6.50
2022-11-28T08:31:47.148Z,6.80
2022-11-28T08:32:47.148Z,6.60
2022-11-28T08:33:47.129Z,7.00
2022-11-28T08:34:47.635Z,6.30
2022-11-28T08:35:47.136Z,6.50
2022-11-28T08:36:47.633Z,6.80
2022-11-28T08:37:47.082Z,7.10
2022-11-28T08:38:57.825Z,6.40
2022-11-28T08:39:48.635Z,6.30
2022-11-28T08:40:47.061Z,6.70
2022-11-28T08:41:47.147Z,6.90
2022-11-28T08:42:47.044Z,7.10
2022-11-28T08:43:48.641Z,6.80
2022-11-28T08:44:53.640Z,6.60
2022-11-28T08:45:47.038Z,7.10
2022-11-28T08:46:47.007Z,7.30
2022-11-28T08:47:47.624Z,6.40
2022-11-28T08:48:46.972Z,6.40
2022-11-28T08:49:47.620Z,7.10
2022-11-28T08:50:48.201Z,6.80
2022-11-28T08:51:46.927Z,7.20
2022-11-28T08:52:47.170Z,6.80
2022-11-28T08:53:49.419Z,6.20
2022-11-28T08:54:47.629Z,6.50
2022-11-28T08:55:47.144Z,6.20
2022-11-28T08:56:46.884Z,6.20
2022-11-28T08:57:46.863Z,6.40
2022-11-28T08:58:47.163Z,6.20
2022-11-28T08:59:46.842Z,7.30
2022-11-28T09:00:46.875Z,6.80
2022-11-28T09:01:49.675Z,6.30
2022-11-28T09:03:09.860Z,6.00
2022-11-28T09:03:46.893Z,6.60
2022-11-28T09:04:46.794Z,6.30
2022-11-28T09:05:47.623Z,6.00
2022-11-28T09:06:46.771Z,6.20
2022-11-28T09:07:47.249Z,6.80
2022-11-28T09:08:46.758Z,5.50
2022-11-28T09:09:48.161Z,5.60
2022-11-28T09:10:46.728Z,5.70
2022-11-28T09:11:46.719Z,5.40
2022-11-28T09:12:53.620Z,5.70
2022-11-28T09:13:46.720Z,5.70
2022-11-28T09:14:46.680Z,5.50
2022-11-28T09:15:49.023Z,5.60
2022-11-28T09:16:47.264Z,5.60
2022-11-28T09:17:46.657Z,5.80
2022-11-28T09:18:47.156Z,5.80
2022-11-28T09:19:47.139Z,6.00
2022-11-28T09:20:46.610Z,5.70
2022-11-28T09:21:51.931Z,5.90
2022-11-28T09:22:50.122Z,5.80
2022-11-28T09:23:46.586Z,5.90
2022-11-28T09:24:46.608Z,5.90
2022-11-28T09:25:47.136Z,6.10
2022-11-28T09:26:46.654Z,5.90
2022-11-28T09:27:49.143Z,6.30
2022-11-28T09:28:46.537Z,6.20
2022-11-28T09:29:47.139Z,5.50
2022-11-28T09:30:49.177Z,5.70
2022-11-28T09:31:47.760Z,5.20
2022-11-28T09:32:46.684Z,5.50
2022-11-28T09:33:46.473Z,5.80
2022-11-28T09:34:47.136Z,5.70
2022-11-28T09:35:46.472Z,5.30
2022-11-28T09:36:46.454Z,5.60
2022-11-28T09:37:46.455Z,5.30
2022-11-28T09:38:46.434Z,5.70
2022-11-28T09:40:11.492Z,5.30
2022-11-28T09:40:47.409Z,4.80
2022-11-28T09:41:46.660Z,5.20
2022-11-28T09:42:46.377Z,5.00
2022-11-28T09:43:51.985Z,4.60
2022-11-28T09:44:47.376Z,5.10
2022-11-28T09:45:53.152Z,5.20
2022-11-28T09:46:47.195Z,4.80
2022-11-28T09:47:47.130Z,4.40
2022-11-28T09:48:49.154Z,4.70
2022-11-28T09:49:46.872Z,4.20
2022-11-28T09:50:46.311Z,4.00
2022-11-28T09:52:01.264Z,4.40
2022-11-28T09:52:46.316Z,4.30
2022-11-28T09:53:47.680Z,4.70
2022-11-28T09:54:47.122Z,4.60
2022-11-28T09:55:49.142Z,4.60
2022-11-28T09:56:46.272Z,4.70
2022-11-28T09:57:46.221Z,4.30
2022-11-28T09:58:49.123Z,4.40
2022-11-28T09:59:46.257Z,4.30
2022-11-28T10:00:48.512Z,4.00
2022-11-28T10:01:46.196Z,4.50
2022-11-28T10:02:49.120Z,4.40
2022-11-28T10:03:46.158Z,4.30
2022-11-28T10:04:46.213Z,4.20
2022-11-28T10:05:46.135Z,4.30
2022-11-28T10:06:46.634Z,4.50
2022-11-28T10:07:47.028Z,4.30
2022-11-28T10:08:46.627Z,4.20
2022-11-28T10:09:46.099Z,4.50
2022-11-28T10:10:46.083Z,4.10
2022-11-28T10:11:46.068Z,4.10
2022-11-28T10:12:46.153Z,4.00
2022-11-28T10:14:06.739Z,4.50
2022-11-28T10:14:47.026Z,4.30
2022-11-28T10:15:46.045Z,4.10
2022-11-28T10:16:46.185Z,4.30
2022-11-28T10:17:46.011Z,4.40
2022-11-28T10:18:46.011Z,4.30
2022-11-28T10:19:54.344Z,4.00
2022-11-28T10:20:47.195Z,4.00
2022-11-28T10:21:45.948Z,3.90
2022-11-28T10:22:45.947Z,4.30
2022-11-28T10:23:46.626Z,4.00
2022-11-28T10:24:46.999Z,3.90
2022-11-28T10:25:45.921Z,4.00
2022-11-28T10:26:46.155Z,3.80
2022-11-28T10:27:46.630Z,3.80
2022-11-28T10:28:48.639Z,3.80
2022-11-28T10:29:46.216Z,3.80
2022-11-28T10:30:45.980Z,4.10
2022-11-28T10:31:45.858Z,3.60
2022-11-28T10:32:46.631Z,3.60
2022-11-28T10:33:45.822Z,3.70
2022-11-28T10:34:46.635Z,4.00
2022-11-28T10:35:45.809Z,4.10
2022-11-28T10:36:45.828Z,3.60
2022-11-28T10:37:48.626Z,3.50
2022-11-28T10:38:45.771Z,3.50
2022-11-28T10:39:48.652Z,3.70
2022-11-28T10:40:46.636Z,3.70
2022-11-28T10:41:46.158Z,3.80
2022-11-28T10:42:45.724Z,3.60
2022-11-28T10:43:45.707Z,3.90
2022-11-28T10:44:45.704Z,3.90
2022-11-28T10:45:45.754Z,3.60
2022-11-28T10:46:45.765Z,3.50
2022-11-28T10:47:48.630Z,3.70
2022-11-28T10:48:45.677Z,3.50
2022-11-28T10:49:46.633Z,3.60
2022-11-28T10:50:45.635Z,3.70
2022-11-28T10:51:45.642Z,3.60
2022-11-28T10:52:46.161Z,3.60
2022-11-28T10:53:45.631Z,3.50
2022-11-28T10:55:07.153Z,3.50
2022-11-28T10:55:45.573Z,4.00
2022-11-28T10:56:45.575Z,3.40
2022-11-28T10:57:45.554Z,3.70
2022-11-28T10:58:46.158Z,3.60
2022-11-28T10:59:45.832Z,3.70
2022-11-28T11:00:45.561Z,3.80
2022-11-28T11:01:50.027Z,3.80
2022-11-28T11:02:45.497Z,3.70
2022-11-28T11:03:45.490Z,4.40
2022-11-28T11:04:48.190Z,3.80
2022-11-28T11:05:45.466Z,3.90
2022-11-28T11:07:06.863Z,4.00
2022-11-28T11:07:46.561Z,3.90
2022-11-28T11:08:45.484Z,4.00
2022-11-28T11:09:45.681Z,3.40
2022-11-28T11:10:46.136Z,3.70
2022-11-28T11:11:45.405Z,3.70
2022-11-28T11:12:45.402Z,3.60
2022-11-28T11:13:45.665Z,3.80
2022-11-28T11:14:45.369Z,3.80
2022-11-28T11:15:45.433Z,3.60
2022-11-28T11:16:45.385Z,4.20
2022-11-28T11:17:45.350Z,3.80
2022-11-28T11:18:45.332Z,3.30
2022-11-28T11:19:45.669Z,3.80
2022-11-28T11:20:45.308Z,3.80
2022-11-28T11:21:45.306Z,3.80
2022-11-28T11:22:46.227Z,4.10
2022-11-28T11:23:45.668Z,3.60
2022-11-28T11:24:46.146Z,3.70
2022-11-28T11:25:45.267Z,4.30
2022-11-28T11:26:45.244Z,4.00
2022-11-28T11:27:45.236Z,3.80
2022-11-28T11:28:46.130Z,4.10
2022-11-28T11:29:46.143Z,3.30
2022-11-28T11:30:45.232Z,4.00
2022-11-28T11:31:45.198Z,4.00
2022-11-28T11:32:50.063Z,4.00
2022-11-28T11:33:46.167Z,4.00
2022-11-28T11:34:45.161Z,3.80
2022-11-28T11:35:45.171Z,3.90
2022-11-28T11:36:45.145Z,3.90
2022-11-28T11:37:45.125Z,3.80
2022-11-28T11:38:45.118Z,4.00
2022-11-28T11:39:45.216Z,4.10
2022-11-28T11:40:45.188Z,3.70
2022-11-28T11:41:45.089Z,4.10
2022-11-28T11:42:45.061Z,3.90
2022-11-28T11:43:45.623Z,3.80
2022-11-28T11:44:45.069Z,3.80
2022-11-28T11:45:48.467Z,3.90
2022-11-28T11:46:46.109Z,4.10
2022-11-28T11:47:45.027Z,3.90
2022-11-28T11:48:45.021Z,4.20
2022-11-28T11:49:47.649Z,3.90
2022-11-28T11:50:44.983Z,4.00
2022-11-28T11:51:44.968Z,3.60
2022-11-28T11:52:46.030Z,4.00
2022-11-28T11:53:44.953Z,3.90
2022-11-28T11:54:44.938Z,4.00
2022-11-28T11:56:05.943Z,3.90
2022-11-28T11:56:44.928Z,4.00
2022-11-28T11:57:44.895Z,4.30
2022-11-28T11:58:44.921Z,4.00
2022-11-28T11:59:45.213Z,4.20
2022-11-28T12:00:44.876Z,3.70
2022-11-28T12:01:45.213Z,4.30
2022-11-28T12:02:44.988Z,4.00
2022-11-28T12:03:44.892Z,3.80
2022-11-28T12:04:55.407Z,3.70
2022-11-28T12:06:12.176Z,4.00
2022-11-28T12:06:45.820Z,4.10
2022-11-28T12:07:44.844Z,4.00
2022-11-28T12:08:44.792Z,3.90
2022-11-28T12:09:44.993Z,4.10
2022-11-28T12:10:44.768Z,4.00
2022-11-28T12:11:50.191Z,4.00
2022-11-28T12:12:44.739Z,4.30
2022-11-28T12:13:44.730Z,4.00
2022-11-28T12:14:47.153Z,4.20
2022-11-28T12:15:44.749Z,4.10
2022-11-28T12:16:44.841Z,4.00
2022-11-28T12:17:50.080Z,4.00
2022-11-28T12:18:45.691Z,3.90
2022-11-28T12:19:44.664Z,4.30
2022-11-28T12:20:44.682Z,4.30
2022-11-28T12:21:44.643Z,4.20
2022-11-28T12:22:44.646Z,4.20
2022-11-28T12:23:45.138Z,4.30
2022-11-28T12:24:45.879Z,4.10
2022-11-28T12:25:45.146Z,3.90
2022-11-28T12:26:44.675Z,4.00
2022-11-28T12:27:44.594Z,4.20
2022-11-28T12:28:44.574Z,4.50
2022-11-28T12:29:44.793Z,4.30
2022-11-28T12:30:51.171Z,4.30
2022-11-28T12:31:44.597Z,4.40
2022-11-28T12:32:44.555Z,4.20
2022-11-28T12:33:44.512Z,4.50
2022-11-28T12:34:44.511Z,4.60
2022-11-28T12:35:44.494Z,4.90
2022-11-28T12:36:51.133Z,4.50
2022-11-28T12:38:09.788Z,5.00
2022-11-28T12:38:45.483Z,4.10
2022-11-28T12:39:51.133Z,4.60
2022-11-28T12:40:44.439Z,4.50
2022-11-28T12:41:44.422Z,4.70
2022-11-28T12:42:44.668Z,4.80
2022-11-28T12:43:44.419Z,5.20
2022-11-28T12:44:44.415Z,4.90
2022-11-28T12:45:44.382Z,4.60
2022-11-28T12:46:44.418Z,5.10
2022-11-28T12:47:44.368Z,4.60
2022-11-28T12:48:50.202Z,4.40
2022-11-28T12:49:45.873Z,4.60
2022-11-28T12:50:45.145Z,4.30
2022-11-28T12:51:44.321Z,4.80
2022-11-28T12:52:44.300Z,4.50
2022-11-28T12:53:44.320Z,4.40
2022-11-28T12:54:44.282Z,4.50
2022-11-28T12:55:44.287Z,4.90
2022-11-28T12:56:44.261Z,4.80
2022-11-28T12:57:44.254Z,5.00
2022-11-28T12:58:44.241Z,4.60
2022-11-28T12:59:44.823Z,4.90
2022-11-28T13:00:44.222Z,4.50
2022-11-28T13:01:44.348Z,5.00
2022-11-28T13:02:44.300Z,5.10
2022-11-28T13:03:44.176Z,5.10
2022-11-28T13:04:44.475Z,5.10
2022-11-28T13:05:44.166Z,4.90
2022-11-28T13:06:44.168Z,4.40
2022-11-28T13:07:47.175Z,4.80
2022-11-28T13:08:48.512Z,5.20
2022-11-28T13:09:45.569Z,5.20
2022-11-28T13:10:44.187Z,4.60
2022-11-28T13:11:44.106Z,4.70
2022-11-28T13:12:44.727Z,4.60
2022-11-28T13:13:44.640Z,4.90
2022-11-28T13:14:44.601Z,4.60
2022-11-28T13:15:44.287Z,5.00
2022-11-28T13:16:44.149Z,4.50
2022-11-28T13:17:44.036Z,5.30
2022-11-28T13:18:44.017Z,4.90
2022-11-28T13:19:44.011Z,4.80